createdAt,value
2019-01-27T15:22:30.038Z,1.00
2019-01-27T15:24:58.586Z,1.20
2019-01-27T15:27:27.138Z,1.30
2019-01-27T15:29:55.718Z,1.30
2019-01-27T15:32:24.251Z,1.37
2019-01-27T15:34:52.839Z,1.07
2019-01-27T15:37:21.514Z,0.80
2019-01-27T15:39:51.375Z,1.00
2019-01-27T15:42:22.982Z,1.10
2019-01-27T15:44:51.659Z,1.07
2019-01-27T15:47:20.310Z,1.20
2019-01-27T15:49:48.880Z,1.20
2019-01-27T15:52:17.460Z,1.20
2019-01-27T15:54:46.030Z,0.97
2019-01-27T15:57:14.661Z,1.80
2019-01-27T15:59:43.240Z,1.30
2019-01-27T16:02:11.797Z,1.23
2019-01-27T16:04:40.342Z,1.30
2019-01-27T16:07:11.972Z,1.27
2019-01-27T16:09:40.529Z,1.50
2019-01-27T16:12:09.104Z,1.53
2019-01-27T16:14:38.663Z,1.60
2019-01-27T16:17:07.660Z,1.77
2019-01-27T16:19:36.277Z,1.77
2019-01-27T16:22:05.017Z,1.90
2019-01-27T16:24:34.906Z,1.93
2019-01-27T16:27:03.457Z,1.50
2019-01-27T16:29:38.904Z,1.80
2019-01-27T16:32:08.613Z,2.27
2019-01-27T16:34:37.170Z,2.30
2019-01-27T16:37:06.197Z,1.77
2019-01-27T16:39:38.046Z,1.90
2019-01-27T16:42:06.613Z,2.67
2019-01-27T16:44:35.205Z,3.30
2019-01-27T16:47:06.466Z,3.30
2019-01-27T16:49:35.031Z,3.20
2019-01-27T16:52:05.412Z,2.70
2019-01-27T16:54:33.986Z,2.30
2019-01-27T16:57:02.625Z,2.33
2019-01-27T16:59:31.277Z,2.93
2019-01-27T17:02:00.138Z,2.40
2019-01-27T17:04:35.508Z,2.33
2019-01-27T17:07:04.306Z,2.53
2019-01-27T17:09:32.890Z,2.13
2019-01-27T17:12:01.505Z,1.90
2019-01-27T17:14:30.136Z,1.93
2019-01-27T17:16:58.673Z,2.00
2019-01-27T17:19:27.332Z,2.33
2019-01-27T17:21:55.911Z,2.40
2019-01-27T17:24:24.523Z,2.30
2019-01-27T17:26:54.046Z,1.97
2019-01-27T17:29:22.631Z,2.27
2019-01-27T17:31:54.753Z,2.30
2019-01-27T17:34:23.025Z,2.03
2019-01-27T17:36:54.353Z,2.00
2019-01-27T17:39:24.583Z,2.27
2019-01-27T17:41:53.189Z,2.03
2019-01-27T17:44:24.493Z,2.03
2019-01-27T17:46:53.131Z,1.73
2019-01-27T17:49:21.721Z,2.13
2019-01-27T17:51:50.400Z,2.30
2019-01-27T17:54:19.038Z,1.83
2019-01-27T17:56:49.563Z,2.40
2019-01-27T17:59:19.771Z,2.20
2019-01-27T18:01:50.300Z,2.07
2019-01-27T18:04:20.565Z,2.00
2019-01-27T18:06:56.928Z,2.17
2019-01-27T18:09:41.974Z,2.00
2019-01-27T18:12:14.950Z,1.90
2019-01-27T18:14:45.182Z,2.10
2019-01-27T18:17:14.180Z,2.20
2019-01-27T18:19:42.818Z,2.13
2019-01-27T18:22:11.376Z,2.13
2019-01-27T18:24:39.970Z,2.23
2019-01-27T18:27:08.709Z,2.10
2019-01-27T18:29:37.836Z,2.03
2019-01-27T18:32:06.500Z,2.17
2019-01-27T18:34:35.063Z,2.27
2019-01-27T18:37:05.510Z,2.30
2019-01-27T18:39:34.017Z,2.20
2019-01-27T18:42:05.391Z,2.23
2019-01-27T18:44:34.021Z,2.40
2019-01-27T18:47:02.770Z,2.40
2019-01-27T18:49:31.325Z,2.23
2019-01-27T18:52:00.831Z,2.90
2019-01-27T18:54:33.829Z,2.50
2019-01-27T18:57:09.532Z,2.43
2019-01-27T18:59:55.789Z,2.60
2019-01-27T19:02:26.030Z,3.20
2019-01-27T19:04:56.357Z,3.10
2019-01-27T19:07:33.115Z,3.10
2019-01-27T19:10:03.417Z,3.60
2019-01-27T19:12:39.656Z,3.23
2019-01-27T19:15:27.770Z,3.40
2019-01-27T19:17:58.004Z,3.10
2019-01-27T19:20:30.504Z,2.90
2019-01-27T19:23:03.206Z,3.10
2019-01-27T19:25:33.497Z,2.93
2019-01-27T19:28:06.749Z,3.23
2019-01-27T19:30:45.181Z,3.10
2019-01-27T19:33:43.357Z,3.13
2019-01-27T19:36:24.530Z,3.47
2019-01-27T19:39:03.395Z,3.30
2019-01-27T19:41:39.987Z,3.30
2019-01-27T19:44:25.285Z,3.40
2019-01-27T19:47:11.229Z,3.27
2019-01-27T19:49:44.007Z,3.37
2019-01-27T19:52:30.554Z,3.43
2019-01-27T19:55:09.575Z,2.80
2019-01-27T19:57:42.759Z,3.10
2019-01-27T20:00:24.194Z,2.87
2019-01-27T20:02:57.534Z,2.80
2019-01-27T20:05:29.849Z,2.60
2019-01-27T20:07:59.738Z,3.13
2019-01-27T20:10:29.962Z,2.37
2019-01-27T20:13:08.496Z,2.53
2019-01-27T20:15:49.460Z,2.87
2019-01-27T20:18:35.978Z,2.60
2019-01-27T20:21:21.607Z,2.50
2019-01-27T20:23:57.983Z,2.70
2019-01-27T20:26:37.222Z,2.87
2019-01-27T20:29:07.489Z,2.10
2019-01-27T20:31:47.652Z,2.43
2019-01-27T20:34:34.180Z,2.30
2019-01-27T20:37:07.148Z,2.37
2019-01-27T20:39:43.613Z,2.30
2019-01-27T20:42:19.570Z,2.60
2019-01-27T20:44:52.501Z,2.40
2019-01-27T20:47:25.512Z,2.20
2019-01-27T20:49:55.707Z,2.40
2019-01-27T20:52:41.306Z,2.17
2019-01-27T20:55:26.445Z,2.03
2019-01-27T20:57:58.248Z,1.73
2019-01-27T21:00:34.278Z,2.10
2019-01-27T21:03:07.223Z,1.87
2019-01-27T21:05:38.951Z,2.20
2019-01-27T21:08:12.150Z,2.00
2019-01-27T21:10:45.389Z,1.73
2019-01-27T21:13:31.405Z,2.10
2019-01-27T21:16:05.952Z,1.57
2019-01-27T21:18:36.232Z,1.80
2019-01-27T21:21:05.015Z,2.07
2019-01-27T21:23:33.652Z,1.80
2019-01-27T21:26:02.358Z,1.93
2019-01-27T21:28:30.910Z,2.23
2019-01-27T21:31:02.175Z,1.60
2019-01-27T21:33:31.579Z,1.47
2019-01-27T21:36:01.747Z,1.90
2019-01-27T21:38:32.617Z,1.63
2019-01-27T21:41:07.381Z,1.73
2019-01-27T21:43:45.343Z,1.60
2019-01-27T21:46:14.967Z,1.80
2019-01-27T21:48:43.726Z,1.70
2019-01-27T21:51:12.349Z,1.60
2019-01-27T21:53:42.505Z,1.80
2019-01-27T21:56:11.075Z,1.80
2019-01-27T21:58:39.806Z,1.50
2019-01-27T22:01:08.983Z,1.63
2019-01-27T22:03:37.560Z,1.80
2019-01-27T22:06:06.347Z,2.00
2019-01-27T22:08:35.056Z,1.80
2019-01-27T22:11:03.754Z,1.63
2019-01-27T22:13:32.404Z,1.90
2019-01-27T22:16:00.978Z,1.47
2019-01-27T22:18:29.557Z,1.73
2019-01-27T22:20:58.423Z,2.00
2019-01-27T22:23:27.018Z,1.90
2019-01-27T22:25:56.576Z,1.77
2019-01-27T22:28:25.107Z,1.33
2019-01-27T22:30:54.048Z,1.90
2019-01-27T22:33:22.716Z,1.60
2019-01-27T22:35:51.345Z,1.27
2019-01-27T22:38:20.068Z,1.20
2019-01-27T22:40:48.843Z,1.43
2019-01-27T22:43:17.546Z,1.50
2019-01-27T22:45:46.487Z,1.20
2019-01-27T22:48:15.091Z,1.10
2019-01-27T22:50:43.718Z,1.10
2019-01-27T22:53:12.453Z,1.10
2019-01-27T22:55:41.024Z,1.00
2019-01-27T22:58:11.212Z,0.90
2019-01-27T23:00:56.096Z,0.90
2019-01-27T23:03:24.973Z,0.90
2019-01-27T23:05:53.749Z,1.20
2019-01-27T23:08:22.699Z,1.43
2019-01-27T23:10:51.286Z,1.50
2019-01-27T23:13:19.912Z,1.60
2019-01-27T23:15:48.691Z,2.00
2019-01-27T23:18:17.298Z,1.50
2019-01-27T23:20:45.990Z,1.90
2019-01-27T23:23:14.653Z,1.60
2019-01-27T23:25:44.842Z,1.70
2019-01-27T23:28:13.458Z,2.17
2019-01-27T23:30:42.122Z,2.40
2019-01-27T23:33:10.644Z,2.73
2019-01-27T23:35:39.208Z,2.40
2019-01-27T23:38:08.631Z,2.27
2019-01-27T23:40:37.253Z,2.63
2019-01-27T23:43:05.869Z,2.43
2019-01-27T23:45:34.460Z,3.00
2019-01-27T23:48:03.076Z,3.07
2019-01-27T23:50:34.273Z,2.73
2019-01-27T23:53:02.797Z,2.70
2019-01-27T23:55:32.996Z,2.43
2019-01-27T23:58:01.555Z,2.70
